sensor_id;sensor_type;location;lat;lon;timestamp;temperature;humidity
51982;DHT22;37998;53.416;6.730;2024-01-30T00:01:53;6.50;99.90
51982;DHT22;37998;53.416;6.730;2024-01-30T00:04:19;6.50;99.90
51982;DHT22;37998;53.416;6.730;2024-01-30T00:06:45;6.90;99.90
51982;DHT22;37998;53.416;6.730;2024-01-30T00:09:11;6.40;99.90
51982;DHT22;37998;53.416;6.730;2024-01-30T00:11:37;6.40;99.90
51982;DHT22;37998;53.416;6.730;2024-01-30T00:14:04;6.40;99.90
51982;DHT22;37998;53.416;6.730;2024-01-30T00:16:30;6.30;99.90
51982;DHT22;37998;53.416;6.730;2024-01-30T00:18:56;6.30;99.90
51982;DHT22;37998;53.416;6.730;2024-01-30T00:21:23;6.30;99.90
51982;DHT22;37998;53.416;6.730;2024-01-30T00:23:49;6.30;99.90
51982;DHT22;37998;53.416;6.730;2024-01-30T00:26:15;6.20;99.90
51982;DHT22;37998;53.416;6.730;2024-01-30T00:28:41;6.20;99.90
51982;DHT22;37998;53.416;6.730;2024-01-30T00:31:08;6.20;99.90
51982;DHT22;37998;53.416;6.730;2024-01-30T00:33:41;6.20;99.90
51982;DHT22;37998;53.416;6.730;2024-01-30T00:36:08;6.20;99.90
51982;DHT22;37998;53.416;6.730;2024-01-30T00:38:35;6.20;99.90
51982;DHT22;37998;53.416;6.730;2024-01-30T00:41:01;6.20;99.90
51982;DHT22;37998;53.416;6.730;2024-01-30T00:43:30;6.20;99.90
51982;DHT22;37998;53.416;6.730;2024-01-30T00:45:57;6.10;99.90
51982;DHT22;37998;53.416;6.730;2024-01-30T00:48:23;6.20;99.90
51982;DHT22;37998;53.416;6.730;2024-01-30T00:50:49;6.20;99.90
51982;DHT22;37998;53.416;6.730;2024-01-30T00:53:15;6.20;99.90
51982;DHT22;37998;53.416;6.730;2024-01-30T00:55:41;6.20;99.90
51982;DHT22;37998;53.416;6.730;2024-01-30T00:58:07;6.20;99.90
51982;DHT22;37998;53.416;6.730;2024-01-30T01:00:33;6.20;99.90
51982;DHT22;37998;53.416;6.730;2024-01-30T01:02:59;6.20;99.90
51982;DHT22;37998;53.416;6.730;2024-01-30T01:05:25;6.20;99.90
51982;DHT22;37998;53.416;6.730;2024-01-30T01:07:51;6.20;99.90
51982;DHT22;37998;53.416;6.730;2024-01-30T01:10:17;6.20;99.90
51982;DHT22;37998;53.416;6.730;2024-01-30T01:12:44;6.20;99.90
51982;DHT22;37998;53.416;6.730;2024-01-30T01:15:10;6.20;99.90
51982;DHT22;37998;53.416;6.730;2024-01-30T01:17:37;6.20;99.90
51982;DHT22;37998;53.416;6.730;2024-01-30T01:20:04;6.10;99.90
51982;DHT22;37998;53.416;6.730;2024-01-30T01:22:34;6.10;99.90
51982;DHT22;37998;53.416;6.730;2024-01-30T01:25:00;6.00;99.90
51982;DHT22;37998;53.416;6.730;2024-01-30T01:27:26;6.00;99.90
51982;DHT22;37998;53.416;6.730;2024-01-30T01:29:52;6.00;99.90
51982;DHT22;37998;53.416;6.730;2024-01-30T01:32:19;6.00;99.90
51982;DHT22;37998;53.416;6.730;2024-01-30T01:34:45;6.00;99.90
51982;DHT22;37998;53.416;6.730;2024-01-30T01:37:11;6.00;99.90
51982;DHT22;37998;53.416;6.730;2024-01-30T01:39:37;6.00;99.90
51982;DHT22;37998;53.416;6.730;2024-01-30T01:42:03;6.00;99.90
51982;DHT22;37998;53.416;6.730;2024-01-30T01:44:29;6.00;99.90
51982;DHT22;37998;53.416;6.730;2024-01-30T01:46:56;6.00;99.90
51982;DHT22;37998;53.416;6.730;2024-01-30T01:49:25;6.00;99.90
51982;DHT22;37998;53.416;6.730;2024-01-30T01:51:51;6.00;99.90
51982;DHT22;37998;53.416;6.730;2024-01-30T01:54:18;6.00;99.90
51982;DHT22;37998;53.416;6.730;2024-01-30T01:56:44;6.00;99.90
51982;DHT22;37998;53.416;6.730;2024-01-30T01:59:10;6.00;99.90
51982;DHT22;37998;53.416;6.730;2024-01-30T02:01:36;5.90;99.90
51982;DHT22;37998;53.416;6.730;2024-01-30T02:04:03;5.90;99.90
51982;DHT22;37998;53.416;6.730;2024-01-30T02:06:29;5.90;99.90
51982;DHT22;37998;53.416;6.730;2024-01-30T02:08:55;5.90;99.90
51982;DHT22;37998;53.416;6.730;2024-01-30T02:11:22;5.80;99.90
51982;DHT22;37998;53.416;6.730;2024-01-30T02:13:49;5.80;99.90
51982;DHT22;37998;53.416;6.730;2024-01-30T02:16:16;5.80;99.90
51982;DHT22;37998;53.416;6.730;2024-01-30T02:18:43;5.80;99.90
51982;DHT22;37998;53.416;6.730;2024-01-30T02:21:23;5.80;99.90
51982;DHT22;37998;53.416;6.730;2024-01-30T02:23:51;5.80;99.90
51982;DHT22;37998;53.416;6.730;2024-01-30T02:26:17;5.80;99.90
51982;DHT22;37998;53.416;6.730;2024-01-30T02:28:43;5.70;99.90
51982;DHT22;37998;53.416;6.730;2024-01-30T02:31:09;5.70;99.90
51982;DHT22;37998;53.416;6.730;2024-01-30T02:33:35;5.70;99.90
51982;DHT22;37998;53.416;6.730;2024-01-30T02:36:02;5.70;99.90
51982;DHT22;37998;53.416;6.730;2024-01-30T02:38:28;5.70;99.90
51982;DHT22;37998;53.416;6.730;2024-01-30T02:40:55;5.70;99.90
51982;DHT22;37998;53.416;6.730;2024-01-30T02:43:22;5.90;99.90
51982;DHT22;37998;53.416;6.730;2024-01-30T02:45:47;5.80;99.90
51982;DHT22;37998;53.416;6.730;2024-01-30T02:48:13;5.80;99.90
51982;DHT22;37998;53.416;6.730;2024-01-30T02:50:39;5.80;99.90
51982;DHT22;37998;53.416;6.730;2024-01-30T02:53:05;5.80;99.90
51982;DHT22;37998;53.416;6.730;2024-01-30T02:55:31;5.90;99.90
51982;DHT22;37998;53.416;6.730;2024-01-30T02:57:57;5.90;99.90
51982;DHT22;37998;53.416;6.730;2024-01-30T03:00:23;5.90;99.90
51982;DHT22;37998;53.416;6.730;2024-01-30T03:02:49;5.80;99.90
51982;DHT22;37998;53.416;6.730;2024-01-30T03:05:15;5.80;99.90
51982;DHT22;37998;53.416;6.730;2024-01-30T03:07:41;5.80;99.90
51982;DHT22;37998;53.416;6.730;2024-01-30T03:10:07;5.90;99.90
51982;DHT22;37998;53.416;6.730;2024-01-30T03:12:33;5.80;99.90
51982;DHT22;37998;53.416;6.730;2024-01-30T03:14:59;5.90;99.90
51982;DHT22;37998;53.416;6.730;2024-01-30T03:17:25;5.80;99.90
51982;DHT22;37998;53.416;6.730;2024-01-30T03:19:51;5.80;99.90
51982;DHT22;37998;53.416;6.730;2024-01-30T03:22:17;6.10;99.90
51982;DHT22;37998;53.416;6.730;2024-01-30T03:24:43;5.90;99.90
51982;DHT22;37998;53.416;6.730;2024-01-30T03:27:09;5.80;99.90
51982;DHT22;37998;53.416;6.730;2024-01-30T03:29:35;6.10;99.90
51982;DHT22;37998;53.416;6.730;2024-01-30T03:32:01;5.80;99.90
51982;DHT22;37998;53.416;6.730;2024-01-30T03:34:27;5.80;99.90
51982;DHT22;37998;53.416;6.730;2024-01-30T03:36:52;5.80;99.90
51982;DHT22;37998;53.416;6.730;2024-01-30T03:39:18;5.80;99.90
51982;DHT22;37998;53.416;6.730;2024-01-30T03:41:44;5.70;99.90
51982;DHT22;37998;53.416;6.730;2024-01-30T03:44:10;5.80;99.90
51982;DHT22;37998;53.416;6.730;2024-01-30T03:46:36;5.80;99.90
51982;DHT22;37998;53.416;6.730;2024-01-30T03:49:02;5.80;99.90
51982;DHT22;37998;53.416;6.730;2024-01-30T03:51:28;5.80;99.90
51982;DHT22;37998;53.416;6.730;2024-01-30T03:53:54;5.80;99.90
51982;DHT22;37998;53.416;6.730;2024-01-30T03:56:20;5.80;99.90
51982;DHT22;37998;53.416;6.730;2024-01-30T03:58:46;5.80;99.90
51982;DHT22;37998;53.416;6.730;2024-01-30T04:01:15;5.80;99.90
51982;DHT22;37998;53.416;6.730;2024-01-30T04:03:41;5.70;99.90
51982;DHT22;37998;53.416;6.730;2024-01-30T04:06:08;5.70;99.90
51982;DHT22;37998;53.416;6.730;2024-01-30T04:08:34;5.70;99.90
51982;DHT22;37998;53.416;6.730;2024-01-30T04:11:06;5.70;99.90
51982;DHT22;37998;53.416;6.730;2024-01-30T04:13:33;5.60;99.90
51982;DHT22;37998;53.416;6.730;2024-01-30T04:16:00;5.60;99.90
51982;DHT22;37998;53.416;6.730;2024-01-30T04:18:29;5.60;99.90
51982;DHT22;37998;53.416;6.730;2024-01-30T04:20:55;5.70;99.90
51982;DHT22;37998;53.416;6.730;2024-01-30T04:23:21;5.70;99.90
51982;DHT22;37998;53.416;6.730;2024-01-30T04:25:47;5.70;99.90
51982;DHT22;37998;53.416;6.730;2024-01-30T04:28:13;5.60;99.90
51982;DHT22;37998;53.416;6.730;2024-01-30T04:30:39;5.60;99.90
51982;DHT22;37998;53.416;6.730;2024-01-30T04:33:05;5.60;99.90
51982;DHT22;37998;53.416;6.730;2024-01-30T04:35:31;5.70;99.90
51982;DHT22;37998;53.416;6.730;2024-01-30T04:37:57;5.70;99.90
51982;DHT22;37998;53.416;6.730;2024-01-30T04:40:23;5.80;99.90
51982;DHT22;37998;53.416;6.730;2024-01-30T04:42:49;5.80;99.90
51982;DHT22;37998;53.416;6.730;2024-01-30T04:45:15;5.90;99.90
51982;DHT22;37998;53.416;6.730;2024-01-30T04:47:41;5.80;99.90
51982;DHT22;37998;53.416;6.730;2024-01-30T04:50:07;5.90;99.90
51982;DHT22;37998;53.416;6.730;2024-01-30T04:52:34;5.90;99.90
51982;DHT22;37998;53.416;6.730;2024-01-30T04:55:00;5.90;99.90
51982;DHT22;37998;53.416;6.730;2024-01-30T04:57:26;6.00;99.90
51982;DHT22;37998;53.416;6.730;2024-01-30T04:59:52;5.90;99.90
51982;DHT22;37998;53.416;6.730;2024-01-30T05:02:18;6.00;99.90
51982;DHT22;37998;53.416;6.730;2024-01-30T05:04:44;6.00;99.90
51982;DHT22;37998;53.416;6.730;2024-01-30T05:07:10;6.00;99.90
51982;DHT22;37998;53.416;6.730;2024-01-30T05:09:36;6.20;99.90
51982;DHT22;37998;53.416;6.730;2024-01-30T05:12:02;6.00;99.90
51982;DHT22;37998;53.416;6.730;2024-01-30T05:14:28;6.10;99.90
51982;DHT22;37998;53.416;6.730;2024-01-30T05:16:54;6.10;99.90
51982;DHT22;37998;53.416;6.730;2024-01-30T05:19:20;6.10;99.90
51982;DHT22;37998;53.416;6.730;2024-01-30T05:21:47;6.10;99.90
51982;DHT22;37998;53.416;6.730;2024-01-30T05:24:13;6.20;99.90
51982;DHT22;37998;53.416;6.730;2024-01-30T05:26:41;6.20;99.90
51982;DHT22;37998;53.416;6.730;2024-01-30T05:29:07;6.20;99.90
51982;DHT22;37998;53.416;6.730;2024-01-30T05:31:36;6.20;99.90
51982;DHT22;37998;53.416;6.730;2024-01-30T05:34:03;6.20;99.90
51982;DHT22;37998;53.416;6.730;2024-01-30T05:36:29;6.30;99.90
51982;DHT22;37998;53.416;6.730;2024-01-30T05:38:56;6.30;99.90
51982;DHT22;37998;53.416;6.730;2024-01-30T05:41:22;6.40;99.90
51982;DHT22;37998;53.416;6.730;2024-01-30T05:43:48;6.30;99.90
51982;DHT22;37998;53.416;6.730;2024-01-30T05:46:14;6.40;99.90
51982;DHT22;37998;53.416;6.730;2024-01-30T05:48:39;6.40;99.90
51982;DHT22;37998;53.416;6.730;2024-01-30T05:51:07;6.50;99.90
51982;DHT22;37998;53.416;6.730;2024-01-30T05:53:34;6.50;99.90
51982;DHT22;37998;53.416;6.730;2024-01-30T05:56:03;6.50;99.90
51982;DHT22;37998;53.416;6.730;2024-01-30T05:58:30;6.50;99.90
51982;DHT22;37998;53.416;6.730;2024-01-30T06:00:57;6.50;99.90
51982;DHT22;37998;53.416;6.730;2024-01-30T06:03:23;6.50;99.90
51982;DHT22;37998;53.416;6.730;2024-01-30T06:05:49;6.50;99.90
51982;DHT22;37998;53.416;6.730;2024-01-30T06:08:15;6.50;99.90
51982;DHT22;37998;53.416;6.730;2024-01-30T06:10:41;6.50;99.90
51982;DHT22;37998;53.416;6.730;2024-01-30T06:13:07;6.50;99.90
51982;DHT22;37998;53.416;6.730;2024-01-30T06:15:32;6.50;99.90
51982;DHT22;37998;53.416;6.730;2024-01-30T06:17:59;6.50;99.90
51982;DHT22;37998;53.416;6.730;2024-01-30T06:20:25;6.50;99.90
51982;DHT22;37998;53.416;6.730;2024-01-30T06:22:51;6.50;99.90
51982;DHT22;37998;53.416;6.730;2024-01-30T06:25:17;6.50;99.90
51982;DHT22;37998;53.416;6.730;2024-01-30T06:27:43;6.60;99.90
51982;DHT22;37998;53.416;6.730;2024-01-30T06:30:09;6.60;99.90
51982;DHT22;37998;53.416;6.730;2024-01-30T06:32:36;6.60;99.90
51982;DHT22;37998;53.416;6.730;2024-01-30T06:35:02;6.70;99.90
51982;DHT22;37998;53.416;6.730;2024-01-30T06:37:28;6.70;99.90
51982;DHT22;37998;53.416;6.730;2024-01-30T06:39:54;6.70;99.90
51982;DHT22;37998;53.416;6.730;2024-01-30T06:42:20;6.70;99.90
51982;DHT22;37998;53.416;6.730;2024-01-30T06:44:46;6.70;99.90
51982;DHT22;37998;53.416;6.730;2024-01-30T06:47:12;6.80;99.90
51982;DHT22;37998;53.416;6.730;2024-01-30T06:49:38;6.80;99.90
51982;DHT22;37998;53.416;6.730;2024-01-30T06:52:07;6.80;99.90
51982;DHT22;37998;53.416;6.730;2024-01-30T06:54:34;6.80;99.90
51982;DHT22;37998;53.416;6.730;2024-01-30T06:57:00;6.80;99.90
51982;DHT22;37998;53.416;6.730;2024-01-30T06:59:26;6.80;99.90
51982;DHT22;37998;53.416;6.730;2024-01-30T07:01:51;6.90;99.90
51982;DHT22;37998;53.416;6.730;2024-01-30T07:04:17;6.90;99.90
51982;DHT22;37998;53.416;6.730;2024-01-30T07:06:44;6.80;99.90
51982;DHT22;37998;53.416;6.730;2024-01-30T07:09:10;6.90;99.90
51982;DHT22;37998;53.416;6.730;2024-01-30T07:11:36;6.90;99.90
51982;DHT22;37998;53.416;6.730;2024-01-30T07:14:02;6.90;99.90
51982;DHT22;37998;53.416;6.730;2024-01-30T07:16:30;6.90;99.90
51982;DHT22;37998;53.416;6.730;2024-01-30T07:18:56;6.90;99.90
51982;DHT22;37998;53.416;6.730;2024-01-30T07:21:22;6.90;99.90
51982;DHT22;37998;53.416;6.730;2024-01-30T07:23:56;6.90;99.90
51982;DHT22;37998;53.416;6.730;2024-01-30T07:26:23;7.00;99.90
51982;DHT22;37998;53.416;6.730;2024-01-30T07:28:49;7.00;99.90
51982;DHT22;37998;53.416;6.730;2024-01-30T07:31:15;7.00;99.90
51982;DHT22;37998;53.416;6.730;2024-01-30T07:33:41;7.00;99.90
51982;DHT22;37998;53.416;6.730;2024-01-30T07:36:07;7.00;99.90
51982;DHT22;37998;53.416;6.730;2024-01-30T07:38:34;7.00;99.90
51982;DHT22;37998;53.416;6.730;2024-01-30T07:41:00;7.00;99.90
51982;DHT22;37998;53.416;6.730;2024-01-30T07:43:26;7.00;99.90
51982;DHT22;37998;53.416;6.730;2024-01-30T07:45:51;7.00;99.90
51982;DHT22;37998;53.416;6.730;2024-01-30T07:48:17;7.00;99.90
51982;DHT22;37998;53.416;6.730;2024-01-30T07:50:43;7.00;99.90
51982;DHT22;37998;53.416;6.730;2024-01-30T07:53:09;7.00;99.90
51982;DHT22;37998;53.416;6.730;2024-01-30T07:55:35;7.10;99.90
51982;DHT22;37998;53.416;6.730;2024-01-30T07:58:01;7.10;99.90
51982;DHT22;37998;53.416;6.730;2024-01-30T08:00:27;7.10;99.90
51982;DHT22;37998;53.416;6.730;2024-01-30T08:02:54;7.10;99.90
51982;DHT22;37998;53.416;6.730;2024-01-30T08:05:21;7.10;99.90
51982;DHT22;37998;53.416;6.730;2024-01-30T08:07:51;7.20;99.90
51982;DHT22;37998;53.416;6.730;2024-01-30T08:10:17;7.20;99.90
51982;DHT22;37998;53.416;6.730;2024-01-30T08:12:46;7.20;99.90
51982;DHT22;37998;53.416;6.730;2024-01-30T08:15:12;7.20;99.90
51982;DHT22;37998;53.416;6.730;2024-01-30T08:17:39;7.20;99.90
51982;DHT22;37998;53.416;6.730;2024-01-30T08:20:05;7.30;99.90
51982;DHT22;37998;53.416;6.730;2024-01-30T08:22:31;7.30;99.90
51982;DHT22;37998;53.416;6.730;2024-01-30T08:24:57;7.30;99.90
51982;DHT22;37998;53.416;6.730;2024-01-30T08:27:23;7.30;99.90
51982;DHT22;37998;53.416;6.730;2024-01-30T08:29:49;7.40;99.90
51982;DHT22;37998;53.416;6.730;2024-01-30T08:32:16;7.30;99.90
51982;DHT22;37998;53.416;6.730;2024-01-30T08:34:42;7.30;99.90
51982;DHT22;37998;53.416;6.730;2024-01-30T08:37:08;7.40;99.90
51982;DHT22;37998;53.416;6.730;2024-01-30T08:39:34;7.40;99.90
51982;DHT22;37998;53.416;6.730;2024-01-30T08:42:00;7.40;99.90
51982;DHT22;37998;53.416;6.730;2024-01-30T08:44:26;7.40;99.90
51982;DHT22;37998;53.416;6.730;2024-01-30T08:46:53;7.40;99.90
51982;DHT22;37998;53.416;6.730;2024-01-30T08:49:20;7.40;99.90
51982;DHT22;37998;53.416;6.730;2024-01-30T08:51:46;7.40;99.90
51982;DHT22;37998;53.416;6.730;2024-01-30T08:54:12;7.50;99.90
51982;DHT22;37998;53.416;6.730;2024-01-30T08:56:38;7.50;99.90
51982;DHT22;37998;53.416;6.730;2024-01-30T08:59:06;7.50;99.90
51982;DHT22;37998;53.416;6.730;2024-01-30T09:01:32;7.60;99.90
51982;DHT22;37998;53.416;6.730;2024-01-30T09:03:58;7.60;99.90
51982;DHT22;37998;53.416;6.730;2024-01-30T09:06:24;7.60;99.90
51982;DHT22;37998;53.416;6.730;2024-01-30T09:08:52;7.70;99.90
51982;DHT22;37998;53.416;6.730;2024-01-30T09:11:18;7.70;99.90
51982;DHT22;37998;53.416;6.730;2024-01-30T09:13:44;7.80;99.90
51982;DHT22;37998;53.416;6.730;2024-01-30T09:16:10;7.80;99.90
51982;DHT22;37998;53.416;6.730;2024-01-30T09:18:36;7.80;99.90
51982;DHT22;37998;53.416;6.730;2024-01-30T09:21:02;7.80;99.90
51982;DHT22;37998;53.416;6.730;2024-01-30T09:23:28;7.90;99.90
51982;DHT22;37998;53.416;6.730;2024-01-30T09:25:54;7.90;99.90
51982;DHT22;37998;53.416;6.730;2024-01-30T09:28:20;7.90;99.90
51982;DHT22;37998;53.416;6.730;2024-01-30T09:30:46;7.90;99.90
51982;DHT22;37998;53.416;6.730;2024-01-30T09:33:12;8.00;99.90
51982;DHT22;37998;53.416;6.730;2024-01-30T09:35:38;8.00;99.90
51982;DHT22;37998;53.416;6.730;2024-01-30T09:38:04;8.10;99.90
51982;DHT22;37998;53.416;6.730;2024-01-30T09:40:30;8.20;99.90
51982;DHT22;37998;53.416;6.730;2024-01-30T09:42:56;8.20;99.90
51982;DHT22;37998;53.416;6.730;2024-01-30T09:45:25;8.30;99.90
51982;DHT22;37998;53.416;6.730;2024-01-30T09:47:52;8.40;99.90
51982;DHT22;37998;53.416;6.730;2024-01-30T09:50:19;8.50;99.90
51982;DHT22;37998;53.416;6.730;2024-01-30T09:52:46;8.70;99.90
51982;DHT22;37998;53.416;6.730;2024-01-30T09:55:13;8.70;99.90
51982;DHT22;37998;53.416;6.730;2024-01-30T09:57:39;8.80;99.90
51982;DHT22;37998;53.416;6.730;2024-01-30T10:00:06;8.80;99.90
51982;DHT22;37998;53.416;6.730;2024-01-30T10:02:39;8.90;99.90
51982;DHT22;37998;53.416;6.730;2024-01-30T10:05:06;9.00;99.90
51982;DHT22;37998;53.416;6.730;2024-01-30T10:07:32;9.00;99.90
51982;DHT22;37998;53.416;6.730;2024-01-30T10:09:57;9.00;99.90
51982;DHT22;37998;53.416;6.730;2024-01-30T10:12:26;9.20;99.90
51982;DHT22;37998;53.416;6.730;2024-01-30T10:14:52;9.10;99.90
51982;DHT22;37998;53.416;6.730;2024-01-30T10:17:18;9.20;99.90
51982;DHT22;37998;53.416;6.730;2024-01-30T10:19:43;9.20;99.90
51982;DHT22;37998;53.416;6.730;2024-01-30T10:22:10;9.30;99.90
51982;DHT22;37998;53.416;6.730;2024-01-30T10:24:36;9.30;99.90
51982;DHT22;37998;53.416;6.730;2024-01-30T10:27:02;9.30;99.90
51982;DHT22;37998;53.416;6.730;2024-01-30T10:29:29;9.30;99.90
51982;DHT22;37998;53.416;6.730;2024-01-30T10:31:59;9.40;99.90
51982;DHT22;37998;53.416;6.730;2024-01-30T10:34:28;9.50;99.90
51982;DHT22;37998;53.416;6.730;2024-01-30T10:37:10;9.50;99.90
51982;DHT22;37998;53.416;6.730;2024-01-30T10:39:42;9.60;99.90
51982;DHT22;37998;53.416;6.730;2024-01-30T10:42:17;9.60;99.90
51982;DHT22;37998;53.416;6.730;2024-01-30T10:45:08;9.60;99.90
51982;DHT22;37998;53.416;6.730;2024-01-30T10:47:36;9.70;99.90
51982;DHT22;37998;53.416;6.730;2024-01-30T10:50:03;9.70;99.90
51982;DHT22;37998;53.416;6.730;2024-01-30T10:52:29;9.80;99.90
51982;DHT22;37998;53.416;6.730;2024-01-30T10:54:57;9.80;99.90
51982;DHT22;37998;53.416;6.730;2024-01-30T10:57:24;9.80;99.90
51982;DHT22;37998;53.416;6.730;2024-01-30T10:59:53;9.80;99.90
51982;DHT22;37998;53.416;6.730;2024-01-30T11:02:21;9.80;99.90
51982;DHT22;37998;53.416;6.730;2024-01-30T11:04:49;9.80;99.90
51982;DHT22;37998;53.416;6.730;2024-01-30T11:07:16;9.80;99.90
51982;DHT22;37998;53.416;6.730;2024-01-30T11:10:03;9.80;99.90
51982;DHT22;37998;53.416;6.730;2024-01-30T11:12:32;9.90;99.90
51982;DHT22;37998;53.416;6.730;2024-01-30T11:15:05;9.90;99.90
51982;DHT22;37998;53.416;6.730;2024-01-30T11:20:11;9.90;99.90
51982;DHT22;37998;53.416;6.730;2024-01-30T11:22:37;9.90;99.90
51982;DHT22;37998;53.416;6.730;2024-01-30T11:25:04;10.00;99.90
51982;DHT22;37998;53.416;6.730;2024-01-30T11:27:31;10.00;99.90
51982;DHT22;37998;53.416;6.730;2024-01-30T11:30:02;10.00;99.90
51982;DHT22;37998;53.416;6.730;2024-01-30T11:32:28;10.10;99.90
51982;DHT22;37998;53.416;6.730;2024-01-30T11:34:55;10.00;99.90
51982;DHT22;37998;53.416;6.730;2024-01-30T11:37:21;10.00;99.90
51982;DHT22;37998;53.416;6.730;2024-01-30T11:39:51;10.00;99.90
51982;DHT22;37998;53.416;6.730;2024-01-30T11:42:22;10.00;99.90
51982;DHT22;37998;53.416;6.730;2024-01-30T11:44:50;10.00;99.90
51982;DHT22;37998;53.416;6.730;2024-01-30T11:47:16;9.90;99.90
51982;DHT22;37998;53.416;6.730;2024-01-30T11:49:43;9.90;99.90
51982;DHT22;37998;53.416;6.730;2024-01-30T11:52:09;9.90;99.90
51982;DHT22;37998;53.416;6.730;2024-01-30T11:54:36;9.90;99.90
51982;DHT22;37998;53.416;6.730;2024-01-30T11:57:05;9.80;99.90
51982;DHT22;37998;53.416;6.730;2024-01-30T11:59:30;9.80;99.90
51982;DHT22;37998;53.416;6.730;2024-01-30T12:01:56;9.80;99.90
51982;DHT22;37998;53.416;6.730;2024-01-30T12:04:28;9.70;99.90
51982;DHT22;37998;53.416;6.730;2024-01-30T12:06:55;9.70;99.90
51982;DHT22;37998;53.416;6.730;2024-01-30T12:09:21;9.60;99.90
51982;DHT22;37998;53.416;6.730;2024-01-30T12:11:48;9.50;99.90
51982;DHT22;37998;53.416;6.730;2024-01-30T12:14:16;9.60;99.90
51982;DHT22;37998;53.416;6.730;2024-01-30T12:16:42;9.50;99.90
51982;DHT22;37998;53.416;6.730;2024-01-30T12:19:08;9.50;99.90
51982;DHT22;37998;53.416;6.730;2024-01-30T12:21:35;9.50;99.90
51982;DHT22;37998;53.416;6.730;2024-01-30T12:24:01;9.40;99.90
51982;DHT22;37998;53.416;6.730;2024-01-30T12:26:28;9.40;99.90
51982;DHT22;37998;53.416;6.730;2024-01-30T12:28:54;9.30;99.90
51982;DHT22;37998;53.416;6.730;2024-01-30T12:31:32;9.30;99.90
51982;DHT22;37998;53.416;6.730;2024-01-30T12:34:01;9.30;99.90
51982;DHT22;37998;53.416;6.730;2024-01-30T12:36:28;9.20;99.90
51982;DHT22;37998;53.416;6.730;2024-01-30T12:38:56;9.20;99.90
51982;DHT22;37998;53.416;6.730;2024-01-30T12:41:22;9.30;99.90
51982;DHT22;37998;53.416;6.730;2024-01-30T12:43:54;9.30;99.90
51982;DHT22;37998;53.416;6.730;2024-01-30T12:46:20;9.30;99.90
51982;DHT22;37998;53.416;6.730;2024-01-30T12:48:46;9.40;99.90
51982;DHT22;37998;53.416;6.730;2024-01-30T12:51:11;9.40;99.90
51982;DHT22;37998;53.416;6.730;2024-01-30T12:53:37;9.40;99.90
51982;DHT22;37998;53.416;6.730;2024-01-30T12:56:03;9.40;99.90
51982;DHT22;37998;53.416;6.730;2024-01-30T12:58:29;9.40;99.90
51982;DHT22;37998;53.416;6.730;2024-01-30T13:00:55;9.40;99.90
51982;DHT22;37998;53.416;6.730;2024-01-30T13:03:22;9.30;99.90
51982;DHT22;37998;53.416;6.730;2024-01-30T13:05:48;9.40;99.90
51982;DHT22;37998;53.416;6.730;2024-01-30T13:08:13;9.40;99.90
51982;DHT22;37998;53.416;6.730;2024-01-30T13:10:39;9.40;99.90
51982;DHT22;37998;53.416;6.730;2024-01-30T13:13:05;9.40;99.90
51982;DHT22;37998;53.416;6.730;2024-01-30T13:15:31;9.50;99.90
51982;DHT22;37998;53.416;6.730;2024-01-30T13:17:57;9.50;99.90
51982;DHT22;37998;53.416;6.730;2024-01-30T13:20:23;9.50;99.90
51982;DHT22;37998;53.416;6.730;2024-01-30T13:22:49;9.50;99.90
51982;DHT22;37998;53.416;6.730;2024-01-30T13:25:17;9.50;99.90
51982;DHT22;37998;53.416;6.730;2024-01-30T13:27:43;9.60;99.90
51982;DHT22;37998;53.416;6.730;2024-01-30T13:30:09;9.50;99.90
51982;DHT22;37998;53.416;6.730;2024-01-30T13:32:36;9.50;99.90
51982;DHT22;37998;53.416;6.730;2024-01-30T13:35:02;9.50;99.90
51982;DHT22;37998;53.416;6.730;2024-01-30T13:37:29;9.50;99.90
51982;DHT22;37998;53.416;6.730;2024-01-30T13:39:55;9.50;99.90
51982;DHT22;37998;53.416;6.730;2024-01-30T13:42:25;9.50;99.90
51982;DHT22;37998;53.416;6.730;2024-01-30T13:44:50;9.50;99.90
51982;DHT22;37998;53.416;6.730;2024-01-30T13:47:16;9.50;99.90
51982;DHT22;37998;53.416;6.730;2024-01-30T13:49:44;9.70;99.90
51982;DHT22;37998;53.416;6.730;2024-01-30T13:52:10;9.60;99.90
51982;DHT22;37998;53.416;6.730;2024-01-30T13:54:36;9.50;99.90
51982;DHT22;37998;53.416;6.730;2024-01-30T13:57:02;9.60;99.90
51982;DHT22;37998;53.416;6.730;2024-01-30T13:59:28;9.50;99.90
51982;DHT22;37998;53.416;6.730;2024-01-30T14:01:53;9.50;99.90
51982;DHT22;37998;53.416;6.730;2024-01-30T14:04:19;9.50;99.90
51982;DHT22;37998;53.416;6.730;2024-01-30T14:06:45;9.50;99.90
51982;DHT22;37998;53.416;6.730;2024-01-30T14:09:11;9.40;99.90
51982;DHT22;37998;53.416;6.730;2024-01-30T14:11:37;9.40;99.90
51982;DHT22;37998;53.416;6.730;2024-01-30T14:14:03;9.30;99.90
51982;DHT22;37998;53.416;6.730;2024-01-30T14:16:29;9.20;99.90
51982;DHT22;37998;53.416;6.730;2024-01-30T14:18:55;9.20;99.90
51982;DHT22;37998;53.416;6.730;2024-01-30T14:21:21;9.20;99.90
51982;DHT22;37998;53.416;6.730;2024-01-30T14:23:46;9.10;99.90
51982;DHT22;37998;53.416;6.730;2024-01-30T14:26:12;9.10;99.90
51982;DHT22;37998;53.416;6.730;2024-01-30T14:28:38;9.10;99.90
51982;DHT22;37998;53.416;6.730;2024-01-30T14:31:04;9.10;99.90
51982;DHT22;37998;53.416;6.730;2024-01-30T14:33:30;9.10;99.90
51982;DHT22;37998;53.416;6.730;2024-01-30T14:35:56;9.10;99.90
51982;DHT22;37998;53.416;6.730;2024-01-30T14:38:22;9.10;99.90
51982;DHT22;37998;53.416;6.730;2024-01-30T14:40:48;9.10;99.90
51982;DHT22;37998;53.416;6.730;2024-01-30T14:43:14;9.10;99.90
51982;DHT22;37998;53.416;6.730;2024-01-30T14:45:40;9.10;99.90
51982;DHT22;37998;53.416;6.730;2024-01-30T14:48:06;9.10;99.90
51982;DHT22;37998;53.416;6.730;2024-01-30T14:50:32;9.10;99.90
51982;DHT22;37998;53.416;6.730;2024-01-30T14:52:59;9.10;99.90
51982;DHT22;37998;53.416;6.730;2024-01-30T14:55:25;9.10;99.90
51982;DHT22;37998;53.416;6.730;2024-01-30T14:57:50;9.00;99.90
51982;DHT22;37998;53.416;6.730;2024-01-30T15:00:17;9.00;99.90
51982;DHT22;37998;53.416;6.730;2024-01-30T15:02:44;8.90;99.90
51982;DHT22;37998;53.416;6.730;2024-01-30T15:05:12;8.90;99.90
51982;DHT22;37998;53.416;6.730;2024-01-30T15:07:38;8.90;99.90
51982;DHT22;37998;53.416;6.730;2024-01-30T15:10:04;8.80;99.90
51982;DHT22;37998;53.416;6.730;2024-01-30T15:12:30;8.80;99.90
51982;DHT22;37998;53.416;6.730;2024-01-30T15:14:56;8.80;99.90
51982;DHT22;37998;53.416;6.730;2024-01-30T15:17:22;8.80;99.90
51982;DHT22;37998;53.416;6.730;2024-01-30T15:19:48;8.70;99.90
51982;DHT22;37998;53.416;6.730;2024-01-30T15:22:16;8.70;99.90
51982;DHT22;37998;53.416;6.730;2024-01-30T15:24:42;8.60;99.90
51982;DHT22;37998;53.416;6.730;2024-01-30T15:27:08;8.60;99.90
51982;DHT22;37998;53.416;6.730;2024-01-30T15:29:33;8.60;99.90
51982;DHT22;37998;53.416;6.730;2024-01-30T15:31:59;8.60;99.90
51982;DHT22;37998;53.416;6.730;2024-01-30T15:34:25;8.60;99.90
51982;DHT22;37998;53.416;6.730;2024-01-30T15:36:51;8.50;99.90
51982;DHT22;37998;53.416;6.730;2024-01-30T15:39:18;8.50;99.90
51982;DHT22;37998;53.416;6.730;2024-01-30T15:41:44;8.50;99.90
51982;DHT22;37998;53.416;6.730;2024-01-30T15:44:10;8.50;99.90